Share

San Jose, Costa Rica

Juan Santamaria International (MROC) Elev 3018 ft | 9.99 °N, 84.21 °W | Change Station

Current weather conditions updated 29 minutes ago

Clear
Clear
70 °F
Feels Like 70 °F
N
8
Wind Variable Wind from East
Sunrise 5:24 AM
Sunset 5:47 PM
Moon Waning Gibbous

Today is forecast to be nearly the same temperature as yesterday. Cloudy with late day rain.

Pressure 30.00 in
Visibility -9999.0 miles
Clouds
Dew Point 59 °F
Humidity 68%
Rainfall 0.00 in
Snow Depth Not available.
UV Not available.
Pollen Not available.
Air Quality Not available.
Flu Activity Not available.
METAR MROC 201100Z 09007KT CAVOK 21/15 A3000 NOSIG

More Conditions Fewer Conditions

Pressure 30.00 in
Visibility -9999.0 miles
Clouds
Dew Point 59 °F
Humidity 68%
Rainfall 0.00 in
Snow Depth Not available.
UV Not available.
Pollen Not available.
Air Quality Not available.
Flu Activity Not available.
METAR MROC 201100Z 09007KT CAVOK 21/15 A3000 NOSIG

More Conditions Fewer Conditions

10-Day Weather Forecast

Almanac

Astronomy

Apr. 20, 2014 Rise Set
Actual Time 5:24 AM CST 5:47 PM CST
Civil Twilight 5:02 AM CST 6:09 PM CST
Nautical Twilight 4:37 AM CST 6:34 PM CST
Astronomical Twilight 4:12 AM CST 6:59 PM CST
Moon 11:01 PM CST 10:04 AM CST
Length of Visible Light 13h 06m
Length of Day
12h 23m
Tomorrow will be 0m 31s longer.
Waning Gibbous, 71% of the Moon is Illuminated
Today
Waning Gibbous
Apr 22
Last Quarter
Apr 29
New
May 6
First Quarter
May 14
Full

Yesterday's Extremes

Country Highs Country Lows

Community

  • Easter Greetings
    Easter Greetings
  • Sunny day at the coast-Cape Arago Lighthouse
    Sunny day at the coast-Cape Arago Lighthouse
  • Cherry Blossoms
    Cherry Blossoms
  • White-Crowned Sparrow
    White-Crowned Sparrow
  • New Day
    New Day

WunderPhotos

Upload Photos

1,703,141 photos uploaded!

Nearby

Snow Depth

Not available.

Coastal Water Temperatures

Place Temperature
No Stations Reporting

Earthquake Activity

City Distance Mag. Time & Date
No recent earthquake activity has been reported nearby.
Minimum magnitude displayed is 2.5.

Nearby Weather Stations

Station Location Temp. Dew Point Humidity Wind Precip. Elev Updated Type
Escalante, San Jose 65.5 °F 60 °F 84% East  at  0.0 mph 0.00 in / hr 3911 ft 5:29 AM CST Rapid Fire
San Pedro 65.1 °F 58 °F 79% ENE  at  0.0 mph 0.00 in / hr 3960 ft 5:26 AM CST Normal
La Union 58.8 °F 58 °F 96% South  at  3.8 mph 0.00 in / hr 4993 ft 5:28 AM CST Rapid Fire

Show More Stations Show Fewer Stations

What do you think?

We're not finished. Please let us know what you like, what you don't like, and what you are still missing.